sensor_id;sensor_type;location;lat;lon;timestamp;temperature;humidity
12948;DHT22;6539;49.476;8.484;2023-07-24T00:01:50;22.30;99.90
12948;DHT22;6539;49.476;8.484;2023-07-24T00:04:41;22.20;99.90
12948;DHT22;6539;49.476;8.484;2023-07-24T00:07:27;22.20;99.90
12948;DHT22;6539;49.476;8.484;2023-07-24T00:10:13;22.20;99.90
12948;DHT22;6539;49.476;8.484;2023-07-24T00:12:59;22.20;99.90
12948;DHT22;6539;49.476;8.484;2023-07-24T00:15:45;22.20;99.90
12948;DHT22;6539;49.476;8.484;2023-07-24T00:18:31;22.20;99.90
12948;DHT22;6539;49.476;8.484;2023-07-24T00:21:17;22.10;99.90
12948;DHT22;6539;49.476;8.484;2023-07-24T00:24:03;22.10;99.90
12948;DHT22;6539;49.476;8.484;2023-07-24T00:26:49;22.10;99.90
12948;DHT22;6539;49.476;8.484;2023-07-24T00:29:35;22.00;99.90
12948;DHT22;6539;49.476;8.484;2023-07-24T00:32:24;22.00;99.90
12948;DHT22;6539;49.476;8.484;2023-07-24T00:35:12;22.00;99.90
12948;DHT22;6539;49.476;8.484;2023-07-24T00:37:58;22.00;99.90
12948;DHT22;6539;49.476;8.484;2023-07-24T00:40:44;21.90;99.90
12948;DHT22;6539;49.476;8.484;2023-07-24T00:43:32;21.90;99.90
12948;DHT22;6539;49.476;8.484;2023-07-24T00:46:19;21.80;99.90
12948;DHT22;6539;49.476;8.484;2023-07-24T00:49:05;21.80;99.90
12948;DHT22;6539;49.476;8.484;2023-07-24T00:51:51;21.80;99.90
12948;DHT22;6539;49.476;8.484;2023-07-24T00:54:38;21.80;99.90
12948;DHT22;6539;49.476;8.484;2023-07-24T00:57:24;21.80;99.90
12948;DHT22;6539;49.476;8.484;2023-07-24T01:00:11;21.90;99.90
12948;DHT22;6539;49.476;8.484;2023-07-24T01:02:59;21.80;99.90
12948;DHT22;6539;49.476;8.484;2023-07-24T01:05:45;21.80;99.90
12948;DHT22;6539;49.476;8.484;2023-07-24T01:08:31;21.90;99.90
12948;DHT22;6539;49.476;8.484;2023-07-24T01:11:27;21.90;99.90
12948;DHT22;6539;49.476;8.484;2023-07-24T01:14:32;21.90;99.90
12948;DHT22;6539;49.476;8.484;2023-07-24T01:17:31;21.80;99.90
12948;DHT22;6539;49.476;8.484;2023-07-24T01:20:19;21.80;99.90
12948;DHT22;6539;49.476;8.484;2023-07-24T01:26:09;21.60;99.90
12948;DHT22;6539;49.476;8.484;2023-07-24T01:28:56;21.50;99.90
12948;DHT22;6539;49.476;8.484;2023-07-24T01:31:42;21.40;99.90
12948;DHT22;6539;49.476;8.484;2023-07-24T01:34:31;21.50;99.90
12948;DHT22;6539;49.476;8.484;2023-07-24T01:37:20;21.50;99.90
12948;DHT22;6539;49.476;8.484;2023-07-24T01:40:08;21.50;99.90
12948;DHT22;6539;49.476;8.484;2023-07-24T01:42:56;21.40;99.90
12948;DHT22;6539;49.476;8.484;2023-07-24T01:45:45;21.20;99.90
12948;DHT22;6539;49.476;8.484;2023-07-24T01:51:17;21.30;99.90
12948;DHT22;6539;49.476;8.484;2023-07-24T01:54:06;21.40;99.90
12948;DHT22;6539;49.476;8.484;2023-07-24T01:56:52;21.60;99.90
12948;DHT22;6539;49.476;8.484;2023-07-24T01:59:38;21.50;99.90
12948;DHT22;6539;49.476;8.484;2023-07-24T02:02:24;21.50;99.90
12948;DHT22;6539;49.476;8.484;2023-07-24T02:05:15;21.50;99.90
12948;DHT22;6539;49.476;8.484;2023-07-24T02:08:01;21.50;99.90
12948;DHT22;6539;49.476;8.484;2023-07-24T02:10:50;21.50;99.90
12948;DHT22;6539;49.476;8.484;2023-07-24T02:13:36;21.40;99.90
12948;DHT22;6539;49.476;8.484;2023-07-24T02:16:22;21.30;99.90
12948;DHT22;6539;49.476;8.484;2023-07-24T02:19:08;21.30;99.90
12948;DHT22;6539;49.476;8.484;2023-07-24T02:21:57;21.20;99.90
12948;DHT22;6539;49.476;8.484;2023-07-24T02:24:43;21.10;99.90
12948;DHT22;6539;49.476;8.484;2023-07-24T02:27:31;21.00;99.90
12948;DHT22;6539;49.476;8.484;2023-07-24T02:30:19;21.00;99.90
12948;DHT22;6539;49.476;8.484;2023-07-24T02:33:05;20.90;99.90
12948;DHT22;6539;49.476;8.484;2023-07-24T02:35:52;20.80;99.90
12948;DHT22;6539;49.476;8.484;2023-07-24T02:38:38;20.80;99.90
12948;DHT22;6539;49.476;8.484;2023-07-24T02:41:24;20.80;99.90
12948;DHT22;6539;49.476;8.484;2023-07-24T02:44:13;20.70;99.90
12948;DHT22;6539;49.476;8.484;2023-07-24T02:47:01;20.80;99.90
12948;DHT22;6539;49.476;8.484;2023-07-24T02:49:47;20.80;99.90
12948;DHT22;6539;49.476;8.484;2023-07-24T02:52:33;20.80;99.90
12948;DHT22;6539;49.476;8.484;2023-07-24T02:55:19;20.70;99.90
12948;DHT22;6539;49.476;8.484;2023-07-24T02:58:09;20.70;99.90
12948;DHT22;6539;49.476;8.484;2023-07-24T03:01:05;20.80;99.90
12948;DHT22;6539;49.476;8.484;2023-07-24T03:03:54;20.80;99.90
12948;DHT22;6539;49.476;8.484;2023-07-24T03:06:40;20.80;99.90
12948;DHT22;6539;49.476;8.484;2023-07-24T03:09:29;20.80;99.90
12948;DHT22;6539;49.476;8.484;2023-07-24T03:12:17;20.80;99.90
12948;DHT22;6539;49.476;8.484;2023-07-24T03:15:08;20.80;99.90
12948;DHT22;6539;49.476;8.484;2023-07-24T03:17:55;20.70;99.90
12948;DHT22;6539;49.476;8.484;2023-07-24T03:20:45;20.70;99.90
12948;DHT22;6539;49.476;8.484;2023-07-24T03:23:34;20.70;99.90
12948;DHT22;6539;49.476;8.484;2023-07-24T03:26:20;20.60;99.90
12948;DHT22;6539;49.476;8.484;2023-07-24T03:29:08;20.70;99.90
12948;DHT22;6539;49.476;8.484;2023-07-24T03:31:54;20.70;99.90
12948;DHT22;6539;49.476;8.484;2023-07-24T03:34:40;20.70;99.90
12948;DHT22;6539;49.476;8.484;2023-07-24T03:37:26;20.80;99.90
12948;DHT22;6539;49.476;8.484;2023-07-24T03:40:12;20.80;99.90
12948;DHT22;6539;49.476;8.484;2023-07-24T03:42:59;20.70;99.90
12948;DHT22;6539;49.476;8.484;2023-07-24T03:45:48;20.70;99.90
12948;DHT22;6539;49.476;8.484;2023-07-24T03:48:36;20.80;99.90
12948;DHT22;6539;49.476;8.484;2023-07-24T03:51:22;20.70;99.90
12948;DHT22;6539;49.476;8.484;2023-07-24T03:54:10;20.70;99.90
12948;DHT22;6539;49.476;8.484;2023-07-24T03:56:56;20.70;99.90
12948;DHT22;6539;49.476;8.484;2023-07-24T03:59:42;20.70;99.90
12948;DHT22;6539;49.476;8.484;2023-07-24T04:02:30;20.70;99.90
12948;DHT22;6539;49.476;8.484;2023-07-24T04:05:19;20.70;99.90
12948;DHT22;6539;49.476;8.484;2023-07-24T04:08:05;20.80;99.90
12948;DHT22;6539;49.476;8.484;2023-07-24T04:10:51;20.80;99.90
12948;DHT22;6539;49.476;8.484;2023-07-24T04:13:37;20.90;99.90
12948;DHT22;6539;49.476;8.484;2023-07-24T04:16:23;20.90;99.90
12948;DHT22;6539;49.476;8.484;2023-07-24T04:19:12;20.90;99.90
12948;DHT22;6539;49.476;8.484;2023-07-24T04:22:00;20.90;99.90
12948;DHT22;6539;49.476;8.484;2023-07-24T04:24:53;20.90;99.90
12948;DHT22;6539;49.476;8.484;2023-07-24T04:27:39;20.90;99.90
12948;DHT22;6539;49.476;8.484;2023-07-24T04:30:25;20.90;99.90
12948;DHT22;6539;49.476;8.484;2023-07-24T04:33:11;20.90;99.90
12948;DHT22;6539;49.476;8.484;2023-07-24T04:35:57;20.90;99.90
12948;DHT22;6539;49.476;8.484;2023-07-24T04:38:43;20.90;99.90
12948;DHT22;6539;49.476;8.484;2023-07-24T04:41:32;21.00;99.90
12948;DHT22;6539;49.476;8.484;2023-07-24T04:44:18;21.00;99.90
12948;DHT22;6539;49.476;8.484;2023-07-24T04:47:06;21.00;99.90
12948;DHT22;6539;49.476;8.484;2023-07-24T04:49:55;21.10;99.90
12948;DHT22;6539;49.476;8.484;2023-07-24T04:52:41;21.10;99.90
12948;DHT22;6539;49.476;8.484;2023-07-24T04:55:27;21.00;99.90
12948;DHT22;6539;49.476;8.484;2023-07-24T04:58:13;21.00;99.90
12948;DHT22;6539;49.476;8.484;2023-07-24T05:01:05;21.00;99.90
12948;DHT22;6539;49.476;8.484;2023-07-24T05:03:51;21.00;99.90
12948;DHT22;6539;49.476;8.484;2023-07-24T05:06:40;21.00;99.90
12948;DHT22;6539;49.476;8.484;2023-07-24T05:09:26;21.00;99.90
12948;DHT22;6539;49.476;8.484;2023-07-24T05:12:14;21.00;99.90
12948;DHT22;6539;49.476;8.484;2023-07-24T05:15:00;21.00;99.90
12948;DHT22;6539;49.476;8.484;2023-07-24T05:17:46;21.00;99.90
12948;DHT22;6539;49.476;8.484;2023-07-24T05:20:32;21.00;99.90
12948;DHT22;6539;49.476;8.484;2023-07-24T05:23:18;21.00;99.90
12948;DHT22;6539;49.476;8.484;2023-07-24T05:26:10;21.00;99.90
12948;DHT22;6539;49.476;8.484;2023-07-24T05:28:56;20.90;99.90
12948;DHT22;6539;49.476;8.484;2023-07-24T05:31:42;20.90;99.90
12948;DHT22;6539;49.476;8.484;2023-07-24T05:34:28;21.00;99.90
12948;DHT22;6539;49.476;8.484;2023-07-24T05:37:14;21.00;99.90
12948;DHT22;6539;49.476;8.484;2023-07-24T05:40:00;21.00;99.90
12948;DHT22;6539;49.476;8.484;2023-07-24T05:42:46;21.00;99.90
12948;DHT22;6539;49.476;8.484;2023-07-24T05:45:33;21.00;99.90
12948;DHT22;6539;49.476;8.484;2023-07-24T05:48:21;21.00;99.90
12948;DHT22;6539;49.476;8.484;2023-07-24T05:51:08;20.90;99.90
12948;DHT22;6539;49.476;8.484;2023-07-24T05:53:59;20.90;99.90
12948;DHT22;6539;49.476;8.484;2023-07-24T05:56:45;20.90;99.90
12948;DHT22;6539;49.476;8.484;2023-07-24T05:59:31;20.90;99.90
12948;DHT22;6539;49.476;8.484;2023-07-24T06:02:19;20.90;99.90
12948;DHT22;6539;49.476;8.484;2023-07-24T06:05:05;20.90;99.90
12948;DHT22;6539;49.476;8.484;2023-07-24T06:07:51;21.00;99.90
12948;DHT22;6539;49.476;8.484;2023-07-24T06:10:37;21.00;99.90
12948;DHT22;6539;49.476;8.484;2023-07-24T06:13:26;21.00;99.90
12948;DHT22;6539;49.476;8.484;2023-07-24T06:16:12;21.00;99.90
12948;DHT22;6539;49.476;8.484;2023-07-24T06:18:59;20.90;99.90
12948;DHT22;6539;49.476;8.484;2023-07-24T06:21:45;21.00;99.90
12948;DHT22;6539;49.476;8.484;2023-07-24T06:24:31;20.90;99.90
12948;DHT22;6539;49.476;8.484;2023-07-24T06:27:20;21.00;99.90
12948;DHT22;6539;49.476;8.484;2023-07-24T06:30:07;21.00;99.90
12948;DHT22;6539;49.476;8.484;2023-07-24T06:32:53;21.00;99.90
12948;DHT22;6539;49.476;8.484;2023-07-24T06:35:39;21.10;99.90
12948;DHT22;6539;49.476;8.484;2023-07-24T06:38:27;21.10;99.90
12948;DHT22;6539;49.476;8.484;2023-07-24T06:41:18;21.10;99.90
12948;DHT22;6539;49.476;8.484;2023-07-24T06:44:08;21.00;99.90
12948;DHT22;6539;49.476;8.484;2023-07-24T06:46:57;21.10;99.90
12948;DHT22;6539;49.476;8.484;2023-07-24T06:49:45;21.00;99.90
12948;DHT22;6539;49.476;8.484;2023-07-24T06:52:34;21.20;99.90
12948;DHT22;6539;49.476;8.484;2023-07-24T06:55:20;21.10;99.90
12948;DHT22;6539;49.476;8.484;2023-07-24T06:58:06;21.20;99.90
12948;DHT22;6539;49.476;8.484;2023-07-24T07:00:52;21.30;99.90
12948;DHT22;6539;49.476;8.484;2023-07-24T07:03:38;21.40;99.90
12948;DHT22;6539;49.476;8.484;2023-07-24T07:06:24;21.40;99.90
12948;DHT22;6539;49.476;8.484;2023-07-24T07:09:10;21.40;99.90
12948;DHT22;6539;49.476;8.484;2023-07-24T07:11:59;21.40;99.90
12948;DHT22;6539;49.476;8.484;2023-07-24T07:14:47;21.50;99.90
12948;DHT22;6539;49.476;8.484;2023-07-24T07:17:33;21.70;99.90
12948;DHT22;6539;49.476;8.484;2023-07-24T07:20:19;21.80;99.90
12948;DHT22;6539;49.476;8.484;2023-07-24T07:23:05;21.80;99.90
12948;DHT22;6539;49.476;8.484;2023-07-24T07:25:51;21.70;99.90
12948;DHT22;6539;49.476;8.484;2023-07-24T07:28:40;21.90;99.90
12948;DHT22;6539;49.476;8.484;2023-07-24T07:31:30;21.90;99.90
12948;DHT22;6539;49.476;8.484;2023-07-24T07:34:16;22.00;99.90
12948;DHT22;6539;49.476;8.484;2023-07-24T07:37:02;22.20;99.90
12948;DHT22;6539;49.476;8.484;2023-07-24T07:39:48;22.30;99.90
12948;DHT22;6539;49.476;8.484;2023-07-24T07:42:34;22.20;99.90
12948;DHT22;6539;49.476;8.484;2023-07-24T07:45:23;22.40;99.90
12948;DHT22;6539;49.476;8.484;2023-07-24T07:48:10;22.40;99.90
12948;DHT22;6539;49.476;8.484;2023-07-24T07:50:56;22.40;99.90
12948;DHT22;6539;49.476;8.484;2023-07-24T07:53:42;22.50;99.90
12948;DHT22;6539;49.476;8.484;2023-07-24T07:56:30;22.50;99.90
12948;DHT22;6539;49.476;8.484;2023-07-24T07:59:16;22.60;99.90
12948;DHT22;6539;49.476;8.484;2023-07-24T08:02:02;22.60;99.90
12948;DHT22;6539;49.476;8.484;2023-07-24T08:04:48;22.50;99.90
12948;DHT22;6539;49.476;8.484;2023-07-24T08:07:34;22.60;99.90
12948;DHT22;6539;49.476;8.484;2023-07-24T08:10:21;22.60;99.90
12948;DHT22;6539;49.476;8.484;2023-07-24T08:13:09;22.60;99.90
12948;DHT22;6539;49.476;8.484;2023-07-24T08:15:57;22.60;99.90
12948;DHT22;6539;49.476;8.484;2023-07-24T08:18:48;22.70;99.90
12948;DHT22;6539;49.476;8.484;2023-07-24T08:21:40;22.70;99.90
12948;DHT22;6539;49.476;8.484;2023-07-24T08:24:29;22.80;99.90
12948;DHT22;6539;49.476;8.484;2023-07-24T08:27:17;22.90;99.90
12948;DHT22;6539;49.476;8.484;2023-07-24T08:30:04;22.90;99.90
12948;DHT22;6539;49.476;8.484;2023-07-24T08:32:50;23.00;99.90
12948;DHT22;6539;49.476;8.484;2023-07-24T08:35:36;23.10;99.90
12948;DHT22;6539;49.476;8.484;2023-07-24T08:38:22;23.20;99.90
12948;DHT22;6539;49.476;8.484;2023-07-24T08:41:11;23.30;99.90
12948;DHT22;6539;49.476;8.484;2023-07-24T08:43:59;23.30;99.90
12948;DHT22;6539;49.476;8.484;2023-07-24T08:46:46;23.30;99.90
12948;DHT22;6539;49.476;8.484;2023-07-24T08:49:34;23.40;99.90
12948;DHT22;6539;49.476;8.484;2023-07-24T08:52:23;23.50;99.90
12948;DHT22;6539;49.476;8.484;2023-07-24T08:55:09;23.60;99.90
12948;DHT22;6539;49.476;8.484;2023-07-24T08:57:58;23.50;99.90
12948;DHT22;6539;49.476;8.484;2023-07-24T09:00:44;23.50;99.90
12948;DHT22;6539;49.476;8.484;2023-07-24T09:03:34;23.50;99.90
12948;DHT22;6539;49.476;8.484;2023-07-24T09:06:20;23.50;99.90
12948;DHT22;6539;49.476;8.484;2023-07-24T09:09:13;23.50;99.90
12948;DHT22;6539;49.476;8.484;2023-07-24T09:12:00;23.60;99.90
12948;DHT22;6539;49.476;8.484;2023-07-24T09:14:49;23.60;99.90
12948;DHT22;6539;49.476;8.484;2023-07-24T09:17:52;23.70;99.90
12948;DHT22;6539;49.476;8.484;2023-07-24T09:20:42;23.80;99.90
12948;DHT22;6539;49.476;8.484;2023-07-24T09:23:28;23.80;99.90
12948;DHT22;6539;49.476;8.484;2023-07-24T09:26:17;23.90;99.90
12948;DHT22;6539;49.476;8.484;2023-07-24T09:29:03;24.00;99.90
12948;DHT22;6539;49.476;8.484;2023-07-24T09:31:51;23.90;99.90
12948;DHT22;6539;49.476;8.484;2023-07-24T09:34:42;23.90;99.90
12948;DHT22;6539;49.476;8.484;2023-07-24T09:37:33;23.90;99.90
12948;DHT22;6539;49.476;8.484;2023-07-24T09:40:22;23.80;99.90
12948;DHT22;6539;49.476;8.484;2023-07-24T09:43:19;23.60;99.90
12948;DHT22;6539;49.476;8.484;2023-07-24T09:46:08;23.60;99.90
12948;DHT22;6539;49.476;8.484;2023-07-24T09:48:55;23.50;99.90
12948;DHT22;6539;49.476;8.484;2023-07-24T09:51:45;23.50;99.90
12948;DHT22;6539;49.476;8.484;2023-07-24T09:54:43;23.40;99.90
12948;DHT22;6539;49.476;8.484;2023-07-24T09:57:35;23.30;99.90
12948;DHT22;6539;49.476;8.484;2023-07-24T10:00:22;23.40;99.90
12948;DHT22;6539;49.476;8.484;2023-07-24T10:03:09;23.60;99.90
12948;DHT22;6539;49.476;8.484;2023-07-24T10:05:55;23.60;99.90
12948;DHT22;6539;49.476;8.484;2023-07-24T10:08:42;23.60;99.90
12948;DHT22;6539;49.476;8.484;2023-07-24T10:11:31;23.60;99.90
12948;DHT22;6539;49.476;8.484;2023-07-24T10:14:18;23.40;99.90
12948;DHT22;6539;49.476;8.484;2023-07-24T10:17:04;23.30;99.90
12948;DHT22;6539;49.476;8.484;2023-07-24T10:20:03;23.40;99.90
12948;DHT22;6539;49.476;8.484;2023-07-24T10:22:54;23.30;99.90
12948;DHT22;6539;49.476;8.484;2023-07-24T10:25:50;23.30;99.90
12948;DHT22;6539;49.476;8.484;2023-07-24T10:28:39;23.20;99.90
12948;DHT22;6539;49.476;8.484;2023-07-24T10:31:28;23.20;99.90
12948;DHT22;6539;49.476;8.484;2023-07-24T10:34:15;23.30;99.90
12948;DHT22;6539;49.476;8.484;2023-07-24T10:37:09;23.40;99.90
12948;DHT22;6539;49.476;8.484;2023-07-24T10:39:55;23.40;99.90
12948;DHT22;6539;49.476;8.484;2023-07-24T10:42:41;23.50;99.90
12948;DHT22;6539;49.476;8.484;2023-07-24T10:45:56;23.50;99.90
12948;DHT22;6539;49.476;8.484;2023-07-24T10:48:49;23.60;99.90
12948;DHT22;6539;49.476;8.484;2023-07-24T10:51:37;23.60;99.90
12948;DHT22;6539;49.476;8.484;2023-07-24T10:54:23;23.70;99.90
12948;DHT22;6539;49.476;8.484;2023-07-24T10:57:09;23.80;99.90
12948;DHT22;6539;49.476;8.484;2023-07-24T10:59:58;23.80;99.90
12948;DHT22;6539;49.476;8.484;2023-07-24T11:02:45;23.80;99.90
12948;DHT22;6539;49.476;8.484;2023-07-24T11:05:33;23.80;99.90
12948;DHT22;6539;49.476;8.484;2023-07-24T11:08:20;23.80;99.90
12948;DHT22;6539;49.476;8.484;2023-07-24T11:11:11;23.90;99.90
12948;DHT22;6539;49.476;8.484;2023-07-24T11:13:57;23.90;99.90
12948;DHT22;6539;49.476;8.484;2023-07-24T11:16:50;24.00;99.90
12948;DHT22;6539;49.476;8.484;2023-07-24T11:19:36;24.10;99.90
12948;DHT22;6539;49.476;8.484;2023-07-24T11:22:24;24.10;99.90
12948;DHT22;6539;49.476;8.484;2023-07-24T11:25:13;24.20;99.90
12948;DHT22;6539;49.476;8.484;2023-07-24T11:28:07;24.40;99.90
12948;DHT22;6539;49.476;8.484;2023-07-24T11:31:02;24.30;99.90
12948;DHT22;6539;49.476;8.484;2023-07-24T11:33:54;24.50;99.90
12948;DHT22;6539;49.476;8.484;2023-07-24T11:36:43;24.50;99.90
12948;DHT22;6539;49.476;8.484;2023-07-24T11:39:31;24.50;99.90
12948;DHT22;6539;49.476;8.484;2023-07-24T11:42:17;24.60;99.90
12948;DHT22;6539;49.476;8.484;2023-07-24T11:45:04;24.50;99.90
12948;DHT22;6539;49.476;8.484;2023-07-24T11:47:53;24.30;99.90
12948;DHT22;6539;49.476;8.484;2023-07-24T11:50:53;24.20;99.90
12948;DHT22;6539;49.476;8.484;2023-07-24T11:53:43;24.10;99.90
12948;DHT22;6539;49.476;8.484;2023-07-24T11:56:32;24.00;99.90
12948;DHT22;6539;49.476;8.484;2023-07-24T11:59:18;24.30;99.90
12948;DHT22;6539;49.476;8.484;2023-07-24T12:02:10;25.10;99.90
12948;DHT22;6539;49.476;8.484;2023-07-24T12:05:01;25.20;99.90
12948;DHT22;6539;49.476;8.484;2023-07-24T12:07:53;25.00;99.90
12948;DHT22;6539;49.476;8.484;2023-07-24T12:10:42;25.00;99.90
12948;DHT22;6539;49.476;8.484;2023-07-24T12:13:28;24.50;99.90
12948;DHT22;6539;49.476;8.484;2023-07-24T12:16:17;24.30;99.90
12948;DHT22;6539;49.476;8.484;2023-07-24T12:19:06;24.00;99.90
12948;DHT22;6539;49.476;8.484;2023-07-24T12:21:54;24.10;99.90
12948;DHT22;6539;49.476;8.484;2023-07-24T12:24:43;24.10;99.90
12948;DHT22;6539;49.476;8.484;2023-07-24T12:27:31;24.20;99.90
12948;DHT22;6539;49.476;8.484;2023-07-24T12:30:23;24.30;99.90
12948;DHT22;6539;49.476;8.484;2023-07-24T12:33:14;24.30;99.90
12948;DHT22;6539;49.476;8.484;2023-07-24T12:36:00;24.30;99.90
12948;DHT22;6539;49.476;8.484;2023-07-24T12:38:50;24.50;99.90
12948;DHT22;6539;49.476;8.484;2023-07-24T12:41:36;24.50;99.90
12948;DHT22;6539;49.476;8.484;2023-07-24T12:44:24;24.60;99.90
12948;DHT22;6539;49.476;8.484;2023-07-24T12:47:12;24.70;99.90
12948;DHT22;6539;49.476;8.484;2023-07-24T12:49:58;24.90;99.90
12948;DHT22;6539;49.476;8.484;2023-07-24T12:52:46;25.40;99.90
12948;DHT22;6539;49.476;8.484;2023-07-24T12:55:34;25.70;99.90
12948;DHT22;6539;49.476;8.484;2023-07-24T12:58:23;25.30;99.90
12948;DHT22;6539;49.476;8.484;2023-07-24T13:01:09;25.00;99.90
12948;DHT22;6539;49.476;8.484;2023-07-24T13:03:55;24.80;99.90
12948;DHT22;6539;49.476;8.484;2023-07-24T13:06:41;24.80;99.90
12948;DHT22;6539;49.476;8.484;2023-07-24T13:09:29;24.80;99.90
12948;DHT22;6539;49.476;8.484;2023-07-24T13:12:18;25.10;99.90
12948;DHT22;6539;49.476;8.484;2023-07-24T13:15:06;25.20;99.90
12948;DHT22;6539;49.476;8.484;2023-07-24T13:17:52;25.20;99.90
12948;DHT22;6539;49.476;8.484;2023-07-24T13:20:41;25.30;99.90
12948;DHT22;6539;49.476;8.484;2023-07-24T13:23:32;25.60;99.90
12948;DHT22;6539;49.476;8.484;2023-07-24T13:26:18;26.40;99.90
12948;DHT22;6539;49.476;8.484;2023-07-24T13:29:04;26.50;99.90
12948;DHT22;6539;49.476;8.484;2023-07-24T13:31:51;26.80;99.90
12948;DHT22;6539;49.476;8.484;2023-07-24T13:34:39;26.60;99.90
12948;DHT22;6539;49.476;8.484;2023-07-24T13:37:26;27.50;99.90
12948;DHT22;6539;49.476;8.484;2023-07-24T13:40:12;28.00;99.90
12948;DHT22;6539;49.476;8.484;2023-07-24T13:42:58;27.40;99.90
12948;DHT22;6539;49.476;8.484;2023-07-24T13:45:44;26.90;99.90
12948;DHT22;6539;49.476;8.484;2023-07-24T13:48:30;26.40;99.90
12948;DHT22;6539;49.476;8.484;2023-07-24T13:51:19;26.00;99.90
12948;DHT22;6539;49.476;8.484;2023-07-24T13:54:05;25.60;99.90
12948;DHT22;6539;49.476;8.484;2023-07-24T13:56:51;25.40;99.90
12948;DHT22;6539;49.476;8.484;2023-07-24T13:59:37;25.20;99.90
12948;DHT22;6539;49.476;8.484;2023-07-24T14:02:32;25.10;99.90
12948;DHT22;6539;49.476;8.484;2023-07-24T14:05:21;24.90;99.90
12948;DHT22;6539;49.476;8.484;2023-07-24T14:08:07;24.60;99.90
12948;DHT22;6539;49.476;8.484;2023-07-24T14:10:54;24.10;99.90
12948;DHT22;6539;49.476;8.484;2023-07-24T14:13:40;23.70;99.90
12948;DHT22;6539;49.476;8.484;2023-07-24T14:16:26;23.30;99.90
12948;DHT22;6539;49.476;8.484;2023-07-24T14:19:12;23.00;99.90
12948;DHT22;6539;49.476;8.484;2023-07-24T14:21:58;22.60;99.90
12948;DHT22;6539;49.476;8.484;2023-07-24T14:24:44;22.30;99.90
12948;DHT22;6539;49.476;8.484;2023-07-24T14:27:32;22.30;99.90
12948;DHT22;6539;49.476;8.484;2023-07-24T14:30:18;22.00;99.90
12948;DHT22;6539;49.476;8.484;2023-07-24T14:33:04;22.00;99.90
12948;DHT22;6539;49.476;8.484;2023-07-24T14:35:52;22.00;99.90
12948;DHT22;6539;49.476;8.484;2023-07-24T14:38:41;21.90;99.90
12948;DHT22;6539;49.476;8.484;2023-07-24T14:41:29;22.20;99.90
12948;DHT22;6539;49.476;8.484;2023-07-24T14:44:18;22.20;99.90
12948;DHT22;6539;49.476;8.484;2023-07-24T14:47:06;22.50;99.90
12948;DHT22;6539;49.476;8.484;2023-07-24T14:49:53;22.90;99.90
12948;DHT22;6539;49.476;8.484;2023-07-24T14:52:42;23.10;99.90
12948;DHT22;6539;49.476;8.484;2023-07-24T14:55:30;23.00;99.90
12948;DHT22;6539;49.476;8.484;2023-07-24T14:58:16;22.80;99.90
12948;DHT22;6539;49.476;8.484;2023-07-24T15:01:02;22.50;99.90
12948;DHT22;6539;49.476;8.484;2023-07-24T15:03:51;22.40;99.90
12948;DHT22;6539;49.476;8.484;2023-07-24T15:06:37;22.20;99.90
12948;DHT22;6539;49.476;8.484;2023-07-24T15:09:23;22.10;99.90
12948;DHT22;6539;49.476;8.484;2023-07-24T15:12:09;22.10;99.90
12948;DHT22;6539;49.476;8.484;2023-07-24T15:14:57;22.00;99.90
12948;DHT22;6539;49.476;8.484;2023-07-24T15:17:43;22.30;99.90
12948;DHT22;6539;49.476;8.484;2023-07-24T15:20:32;22.90;99.90
12948;DHT22;6539;49.476;8.484;2023-07-24T15:23:18;23.90;99.90
12948;DHT22;6539;49.476;8.484;2023-07-24T15:26:06;24.80;99.90
12948;DHT22;6539;49.476;8.484;2023-07-24T15:28:54;26.00;99.90
12948;DHT22;6539;49.476;8.484;2023-07-24T15:31:43;26.60;99.90
12948;DHT22;6539;49.476;8.484;2023-07-24T15:34:36;26.90;99.90
12948;DHT22;6539;49.476;8.484;2023-07-24T15:37:22;27.00;99.90
12948;DHT22;6539;49.476;8.484;2023-07-24T15:40:10;26.90;99.90
12948;DHT22;6539;49.476;8.484;2023-07-24T15:42:59;25.70;99.90
12948;DHT22;6539;49.476;8.484;2023-07-24T15:45:45;24.70;99.90
12948;DHT22;6539;49.476;8.484;2023-07-24T15:48:36;23.90;99.90
12948;DHT22;6539;49.476;8.484;2023-07-24T15:51:26;23.60;99.90
12948;DHT22;6539;49.476;8.484;2023-07-24T15:54:12;23.30;99.90
12948;DHT22;6539;49.476;8.484;2023-07-24T15:57:01;23.20;99.90
12948;DHT22;6539;49.476;8.484;2023-07-24T15:59:50;23.10;99.90
12948;DHT22;6539;49.476;8.484;2023-07-24T16:02:40;22.90;99.90
12948;DHT22;6539;49.476;8.484;2023-07-24T16:05:26;22.30;99.90
12948;DHT22;6539;49.476;8.484;2023-07-24T16:08:15;21.90;99.90
12948;DHT22;6539;49.476;8.484;2023-07-24T16:11:03;22.20;99.90
12948;DHT22;6539;49.476;8.484;2023-07-24T16:13:53;23.50;99.90
12948;DHT22;6539;49.476;8.484;2023-07-24T16:16:42;24.60;99.90
12948;DHT22;6539;49.476;8.484;2023-07-24T16:19:28;25.60;99.90
12948;DHT22;6539;49.476;8.484;2023-07-24T16:22:14;26.30;99.90
12948;DHT22;6539;49.476;8.484;2023-07-24T16:25:00;27.10;99.90
12948;DHT22;6539;49.476;8.484;2023-07-24T16:27:50;27.80;99.90
12948;DHT22;6539;49.476;8.484;2023-07-24T16:30:36;28.70;99.90
12948;DHT22;6539;49.476;8.484;2023-07-24T16:33:24;29.80;99.90
12948;DHT22;6539;49.476;8.484;2023-07-24T16:36:13;29.80;99.90
12948;DHT22;6539;49.476;8.484;2023-07-24T16:38:59;30.00;99.90
12948;DHT22;6539;49.476;8.484;2023-07-24T16:41:45;29.60;99.90
12948;DHT22;6539;49.476;8.484;2023-07-24T16:44:31;29.50;99.90
12948;DHT22;6539;49.476;8.484;2023-07-24T16:47:17;29.90;99.90
12948;DHT22;6539;49.476;8.484;2023-07-24T16:50:05;29.90;99.90
12948;DHT22;6539;49.476;8.484;2023-07-24T16:52:54;30.30;99.90
12948;DHT22;6539;49.476;8.484;2023-07-24T16:55:40;30.90;99.90
12948;DHT22;6539;49.476;8.484;2023-07-24T16:58:26;30.60;99.90
12948;DHT22;6539;49.476;8.484;2023-07-24T17:01:12;30.50;99.90
12948;DHT22;6539;49.476;8.484;2023-07-24T17:03:58;30.70;99.90
12948;DHT22;6539;49.476;8.484;2023-07-24T17:06:44;30.80;99.90
12948;DHT22;6539;49.476;8.484;2023-07-24T17:09:36;30.30;99.90
12948;DHT22;6539;49.476;8.484;2023-07-24T17:12:22;29.50;99.90
12948;DHT22;6539;49.476;8.484;2023-07-24T17:15:10;28.30;99.90
12948;DHT22;6539;49.476;8.484;2023-07-24T17:17:57;26.60;99.90
12948;DHT22;6539;49.476;8.484;2023-07-24T17:20:45;25.80;99.90
12948;DHT22;6539;49.476;8.484;2023-07-24T17:23:31;25.20;99.90
12948;DHT22;6539;49.476;8.484;2023-07-24T17:26:17;24.80;99.90
12948;DHT22;6539;49.476;8.484;2023-07-24T17:29:03;24.70;99.90
12948;DHT22;6539;49.476;8.484;2023-07-24T17:31:52;24.40;99.90
12948;DHT22;6539;49.476;8.484;2023-07-24T17:34:38;24.10;99.90
12948;DHT22;6539;49.476;8.484;2023-07-24T17:37:26;24.00;99.90
12948;DHT22;6539;49.476;8.484;2023-07-24T17:40:12;24.00;99.90
12948;DHT22;6539;49.476;8.484;2023-07-24T17:43:00;23.80;99.90
12948;DHT22;6539;49.476;8.484;2023-07-24T17:45:46;23.60;99.90
12948;DHT22;6539;49.476;8.484;2023-07-24T17:48:32;23.50;99.90
12948;DHT22;6539;49.476;8.484;2023-07-24T17:51:20;23.60;99.90
12948;DHT22;6539;49.476;8.484;2023-07-24T17:54:06;23.50;99.90
12948;DHT22;6539;49.476;8.484;2023-07-24T17:56:54;23.40;99.90
12948;DHT22;6539;49.476;8.484;2023-07-24T17:59:43;23.40;99.90
12948;DHT22;6539;49.476;8.484;2023-07-24T18:02:29;23.30;99.90